Time;durP1;ratioP1;P1;durP2;ratioP2;P2;SDS_P1;SDS_P2;PMS_P1;PMS_P2;Temp;Humidity;BMP_temperature;BMP_pressure;BME280_temperature;BME280_humidity;BME280_pressure;Samples;Min_cycle;Max_cycle;Signal;HPM_P1;HPM_P2
2020/12/26 00:01:19;;;;;;;;;3.25;2.00;20.50;81.30;;;18.90;59.22;101658.31;5067563;28;9556;-59
2020/12/26 00:03:47;;;;;;;;;3.75;3.25;20.50;80.30;;;19.03;59.33;101656.22;5067388;28;8859;-59
2020/12/26 00:06:22;;;;;;;;;3.00;3.00;20.80;79.90;;;19.16;58.15;101654.19;5066421;28;8958;-59
2020/12/26 00:08:50;;;;;;;;;3.50;3.50;20.80;79.30;;;19.23;58.87;101657.16;5070918;28;8806;-57
2020/12/26 00:11:20;;;;;;;;;2.75;2.75;20.80;79.20;;;19.24;57.35;101651.66;5070719;28;8780;-59
2020/12/26 00:13:49;;;;;;;;;5.00;3.25;20.90;79.60;;;19.23;57.37;101657.16;5080899;28;8866;-57
2020/12/26 00:16:17;;;;;;;;;3.00;3.00;20.70;79.30;;;19.22;58.01;101647.44;5068782;28;10096;-59
2020/12/26 00:18:45;;;;;;;;;2.50;2.00;20.70;79.90;;;19.20;58.55;101641.34;5073949;28;8815;-59
2020/12/26 00:21:17;;;;;;;;;2.00;2.00;20.50;80.40;;;19.22;57.30;101647.44;5076223;28;8859;-59
2020/12/26 00:23:45;;;;;;;;;2.75;2.00;20.60;80.20;;;19.28;57.81;101641.50;5064711;28;8816;-59
2020/12/26 00:26:15;;;;;;;;;1.00;1.00;20.60;79.80;;;19.33;57.79;101649.16;5064256;28;8798;-60
2020/12/26 00:28:43;;;;;;;;;1.00;1.00;20.90;79.40;;;19.34;61.19;101649.03;5069569;28;8815;-60
2020/12/26 00:31:16;;;;;;;;;1.00;1.00;20.80;80.10;;;19.32;58.52;101647.47;5067271;28;8832;-60
2020/12/26 00:33:44;;;;;;;;;4.25;3.50;20.80;79.30;;;19.32;58.18;101642.94;5070050;28;8809;-59
2020/12/26 00:36:11;;;;;;;;;2.00;1.75;20.60;79.70;;;19.28;58.38;101641.50;5063306;28;8924;-60
2020/12/26 00:38:38;;;;;;;;;1.50;1.50;20.60;79.80;;;19.30;56.90;101642.22;5068510;28;8800;-60
2020/12/26 00:41:05;;;;;;;;;1.50;0.50;20.60;79.40;;;19.36;58.30;101640.84;5071795;28;8969;-59
2020/12/26 00:43:31;;;;;;;;;1.00;1.00;20.80;79.80;;;19.36;60.62;101640.84;5082761;28;8889;-60
2020/12/26 00:45:58;;;;;;;;;1.50;1.00;20.80;79.10;;;19.33;57.42;101633.91;5071624;28;8789;-59
2020/12/26 00:48:25;;;;;;;;;1.75;1.25;20.70;78.80;;;19.32;57.56;101632.22;5071144;28;8788;-59
2020/12/26 00:50:52;;;;;;;;;1.00;1.00;20.80;78.90;;;19.30;56.82;101636.88;5073411;28;8897;-60
2020/12/26 00:53:19;;;;;;;;;1.00;1.00;20.60;79.30;;;19.35;56.57;101634.63;5072406;28;8838;-60
2020/12/26 00:55:45;;;;;;;;;1.00;1.00;20.70;79.20;;;19.39;58.06;101632.53;5072000;28;8815;-60
2020/12/26 00:58:12;;;;;;;;;1.25;1.25;20.80;79.30;;;19.39;59.93;101636.06;5073548;28;8816;-59
2020/12/26 01:00:39;;;;;;;;;0.60;0.60;20.80;78.60;;;19.36;57.75;101628.31;5068228;28;8800;-60
2020/12/26 01:03:06;;;;;;;;;1.00;1.00;20.70;78.40;;;19.35;58.19;101625.75;5067091;28;8829;-60
2020/12/26 01:05:32;;;;;;;;;1.80;1.00;20.80;78.60;;;19.35;58.49;101631.09;5062697;28;8820;-60
2020/12/26 01:07:59;;;;;;;;;0.50;0.50;20.80;78.60;;;19.31;57.42;101625.19;5065668;28;8796;-59
2020/12/26 01:10:26;;;;;;;;;1.00;1.00;20.70;79.70;;;19.30;57.07;101640.41;5070536;28;8784;-59
2020/12/26 01:12:53;;;;;;;;;1.20;0.80;20.80;79.20;;;19.35;57.20;101640.00;5068892;28;8988;-60
2020/12/26 01:15:20;;;;;;;;;0.00;0.00;20.90;79.70;;;19.38;60.14;101654.94;5077268;28;8816;-57
2020/12/26 01:17:47;;;;;;;;;1.00;0.00;20.90;78.60;;;19.37;58.50;101647.91;5066119;28;8831;-60
2020/12/26 01:20:14;;;;;;;;;0.00;0.00;20.80;78.60;;;19.35;58.35;101639.16;5059931;28;8958;-60
2020/12/26 01:22:40;;;;;;;;;0.50;0.50;20.60;78.50;;;19.34;58.86;101648.19;5063890;28;8882;-60
2020/12/26 01:25:08;;;;;;;;;1.00;1.00;20.70;78.50;;;19.31;57.68;101643.94;5064148;28;8803;-60
2020/12/26 01:27:35;;;;;;;;;0.20;0.20;20.80;80.00;;;19.32;56.40;101653.66;5067278;28;8812;-59
2020/12/26 01:30:03;;;;;;;;;0.00;0.00;20.60;79.00;;;19.37;57.05;101645.22;5050366;28;8826;-59
2020/12/26 01:32:29;;;;;;;;;1.00;1.00;20.80;78.90;;;19.39;57.64;101659.34;5056799;28;8791;-59
2020/12/26 01:34:58;;;;;;;;;0.00;0.00;21.00;78.90;;;19.40;59.54;101640.41;5065364;28;8767;-59
2020/12/26 01:37:26;;;;;;;;;0.60;0.60;20.80;78.50;;;19.37;58.96;101637.19;5077151;28;8813;-58
2020/12/26 01:39:53;;;;;;;;;0.80;0.80;20.90;78.40;;;19.36;57.82;101648.88;5081596;28;8785;-59
2020/12/26 01:42:21;;;;;;;;;0.20;0.20;20.90;78.40;;;19.35;57.45;101652.53;5072039;28;8816;-59
2020/12/26 01:44:48;;;;;;;;;0.40;0.00;20.50;78.40;;;19.34;58.79;101656.22;5067643;28;8775;-59
2020/12/26 01:47:16;;;;;;;;;1.00;1.00;20.60;78.40;;;19.30;57.33;101661.81;5066470;28;8780;-59
2020/12/26 01:49:44;;;;;;;;;0.00;0.00;20.80;79.50;;;19.32;56.25;101660.88;5059289;28;8788;-59
2020/12/26 01:52:14;;;;;;;;;0.20;0.20;20.60;78.90;;;19.35;57.13;101663.25;5074977;28;8889;-59
2020/12/26 01:54:41;;;;;;;;;1.00;1.00;20.70;78.90;;;19.37;58.38;101661.28;5065494;28;8858;-59
2020/12/26 01:57:09;;;;;;;;;0.75;0.75;21.10;79.00;;;19.39;60.35;101659.34;5071157;28;8824;-59
2020/12/26 01:59:36;;;;;;;;;1.00;1.00;20.80;78.60;;;19.37;59.37;101661.28;5078336;28;8870;-59
2020/12/26 02:02:08;;;;;;;;;1.00;1.00;20.70;78.30;;;19.35;57.65;101657.91;5075731;28;8824;-59
2020/12/26 02:04:35;;;;;;;;;0.50;0.00;20.70;78.60;;;19.33;57.60;101659.88;5085672;28;8781;-59
2020/12/26 02:07:05;;;;;;;;;0.00;0.00;20.50;79.80;;;19.32;56.53;101653.66;5082360;28;9643;-59
2020/12/26 02:09:33;;;;;;;;;1.25;0.00;20.70;78.60;;;19.39;56.84;101651.28;5076692;28;8806;-59
2020/12/26 02:12:00;;;;;;;;;1.00;1.00;20.70;78.50;;;19.40;57.76;101656.50;5091287;28;8796;-59
2020/12/26 02:14:27;;;;;;;;;1.00;1.00;20.70;78.60;;;19.41;58.21;101654.66;5065724;28;8851;-59
2020/12/26 02:16:54;;;;;;;;;0.60;0.60;20.60;78.70;;;19.42;58.53;101657.22;5075899;28;8876;-60
2020/12/26 02:19:24;;;;;;;;;0.50;0.50;20.60;78.10;;;19.42;59.46;101670.63;5072624;28;8803;-60
2020/12/26 02:21:51;;;;;;;;;0.80;0.20;20.90;78.00;;;19.43;59.32;101668.78;5060971;28;8822;-59
2020/12/26 02:24:18;;;;;;;;;1.00;1.00;20.80;78.20;;;19.43;57.00;101666.94;5068159;28;8835;-59
2020/12/26 02:26:45;;;;;;;;;1.00;1.00;21.00;78.80;;;19.48;56.82;101658.50;5071677;28;8791;-60
2020/12/26 02:29:12;;;;;;;;;1.60;1.00;20.90;78.70;;;19.54;56.65;101647.25;5070721;28;8862;-59
2020/12/26 02:31:39;;;;;;;;;1.00;1.00;21.30;78.80;;;19.57;57.19;101657.66;5073188;28;8795;-59
2020/12/26 02:34:06;;;;;;;;;1.00;1.00;21.10;78.60;;;19.59;57.07;101671.78;5071321;28;9500;-59
2020/12/26 02:36:35;;;;;;;;;1.00;1.00;21.00;78.20;;;19.60;58.22;101678.84;5070760;28;8804;-59
2020/12/26 02:39:03;;;;;;;;;1.00;1.00;21.10;78.40;;;19.61;59.81;101675.16;5066047;28;9564;-59
2020/12/26 02:41:29;;;;;;;;;2.20;1.60;21.10;78.90;;;19.62;58.69;101684.06;5078130;28;8801;-59
2020/12/26 02:43:56;;;;;;;;;0.80;0.80;21.00;78.20;;;19.61;56.56;101666.28;5075114;28;8859;-58
2020/12/26 02:46:23;;;;;;;;;1.00;1.00;21.00;78.90;;;19.61;57.02;101677.84;5073021;28;8854;-58
2020/12/26 02:48:50;;;;;;;;;1.00;1.00;20.90;78.90;;;19.66;56.96;101666.69;5063425;28;8775;-58
2020/12/26 02:51:17;;;;;;;;;1.00;1.00;21.10;78.80;;;19.67;59.11;101661.25;5078688;28;8774;-58
2020/12/26 02:53:44;;;;;;;;;1.00;0.00;21.10;78.20;;;19.67;58.18;101655.88;5080631;28;8802;-57
2020/12/26 02:56:11;;;;;;;;;1.00;1.00;21.10;78.50;;;19.67;57.82;101650.53;5062645;28;8830;-58
2020/12/26 02:58:41;;;;;;;;;0.00;0.00;21.10;78.20;;;19.67;55.84;101658.56;5067777;28;8879;-58
2020/12/26 03:01:09;;;;;;;;;2.20;1.40;20.90;78.30;;;19.65;60.43;101649.78;5070493;28;8822;-58
2020/12/26 03:03:35;;;;;;;;;1.00;1.00;21.00;78.40;;;19.63;56.88;101659.78;5076797;28;8836;-58
2020/12/26 03:06:02;;;;;;;;;0.00;0.00;21.00;78.50;;;19.63;56.83;101661.63;5072819;28;8907;-58
2020/12/26 03:08:29;;;;;;;;;2.60;2.00;21.10;78.90;;;19.66;56.34;101664.03;5081166;28;8835;-58
2020/12/26 03:10:56;;;;;;;;;1.00;0.60;21.20;78.60;;;19.68;58.29;101660.25;5069126;28;8906;-59
2020/12/26 03:13:23;;;;;;;;;1.40;1.40;21.10;78.30;;;19.69;58.53;101648.56;5076895;28;9571;-58
2020/12/26 03:15:50;;;;;;;;;1.00;1.00;21.00;77.80;;;19.68;58.75;101646.00;5082135;28;8966;-58
2020/12/26 03:18:16;;;;;;;;;2.50;2.00;21.10;77.80;;;19.68;59.23;101654.03;5081975;28;8781;-58
2020/12/26 03:20:43;;;;;;;;;0.00;0.00;21.10;77.90;;;19.65;57.53;101651.63;5092470;28;8793;-57
2020/12/26 03:23:10;;;;;;;;;11.00;10.50;20.90;77.70;;;19.64;58.67;101655.25;5077453;28;9569;-58
2020/12/26 03:25:37;;;;;;;;;10.25;9.75;20.90;77.70;;;19.65;57.96;101662.34;5077529;28;8777;-56
2020/12/26 03:28:04;;;;;;;;;10.00;9.50;20.80;78.00;;;19.63;58.15;101659.78;5078942;28;8793;-57
2020/12/26 03:30:30;;;;;;;;;29.50;28.50;21.00;78.80;;;19.64;58.03;101672.22;5072951;28;9372;-58
2020/12/26 03:32:57;;;;;;;;;32.50;30.75;20.80;78.10;;;19.63;56.24;101670.50;5071848;28;8781;-58
2020/12/26 03:35:24;;;;;;;;;24.50;24.00;21.00;78.40;;;19.63;59.38;101665.16;5060575;28;8878;-58
2020/12/26 03:37:51;;;;;;;;;24.00;23.75;20.90;78.10;;;19.62;59.80;101666.16;5071848;28;8780;-58
2020/12/26 03:40:18;;;;;;;;;29.50;27.50;21.00;77.90;;;19.61;59.18;101677.00;5076568;28;8819;-57
2020/12/26 03:42:45;;;;;;;;;23.50;20.75;20.90;78.00;;;19.60;58.94;101667.28;5074472;28;8816;-58
2020/12/26 03:45:11;;;;;;;;;31.50;28.75;20.80;78.00;;;19.59;58.66;101679.81;5073748;28;8780;-58
2020/12/26 03:47:38;;;;;;;;;15.00;15.00;20.90;78.00;;;19.59;58.98;101684.31;5071763;28;8874;-58
2020/12/26 03:50:05;;;;;;;;;11.25;10.50;20.90;78.10;;;19.59;57.65;101684.31;5079923;28;8897;-58
2020/12/26 03:52:32;;;;;;;;;13.50;13.50;20.90;78.20;;;19.57;59.99;101686.31;5072188;28;8793;-58
2020/12/26 03:54:58;;;;;;;;;13.50;12.75;20.90;77.90;;;19.57;60.18;101694.34;5068240;28;8784;-58
2020/12/26 03:57:25;;;;;;;;;16.00;15.50;20.70;78.10;;;19.56;57.43;101701.53;5072252;28;8809;-58
2020/12/26 03:59:52;;;;;;;;;11.25;11.25;21.00;78.60;;;19.55;57.42;101696.31;5070389;28;9627;-58
2020/12/26 04:02:19;;;;;;;;;12.50;12.00;20.90;78.60;;;19.53;59.66;101688.41;5069721;28;8812;-58
2020/12/26 04:04:45;;;;;;;;;16.25;13.75;21.00;79.40;;;19.52;59.04;101687.56;5062187;28;8796;-58
2020/12/26 04:07:12;;;;;;;;;15.25;15.25;20.90;78.70;;;19.50;59.61;101689.53;5072476;28;8804;-56
2020/12/26 04:09:39;;;;;;;;;15.50;14.75;21.00;78.70;;;19.51;58.12;101679.66;5069888;28;9509;-58
2020/12/26 04:12:06;;;;;;;;;22.75;21.75;20.80;78.60;;;19.50;58.14;101696.72;5078146;28;8796;-58
2020/12/26 04:14:33;;;;;;;;;18.75;18.75;20.90;78.70;;;19.48;58.88;101687.97;5076058;28;8811;-58
2020/12/26 04:17:00;;;;;;;;;15.00;14.75;20.80;78.70;;;19.48;58.33;101691.50;5073224;28;8845;-58
2020/12/26 04:19:27;;;;;;;;;21.75;20.25;20.80;78.80;;;19.47;58.66;101692.50;5071466;28;8943;-58
2020/12/26 04:21:55;;;;;;;;;20.00;19.00;20.80;78.90;;;19.47;57.79;101699.69;5070253;28;9489;-58
2020/12/26 04:24:23;;;;;;;;;23.50;21.75;20.80;78.80;;;19.46;58.62;101700.66;5066248;28;8800;-58
2020/12/26 04:26:50;;;;;;;;;14.25;13.50;20.80;78.70;;;19.44;58.08;101694.59;5067868;28;8789;-58
2020/12/26 04:29:21;;;;;;;;;24.25;21.75;20.80;78.80;;;19.44;59.10;101695.44;5074446;28;8784;-58
2020/12/26 04:31:50;;;;;;;;;23.75;19.25;20.90;79.10;;;19.44;57.42;101708.00;5067214;28;8765;-58
2020/12/26 04:34:17;;;;;;;;;16.50;15.50;20.90;78.70;;;19.43;57.72;101701.78;5069846;28;8818;-58
2020/12/26 04:36:43;;;;;;;;;13.50;13.50;20.70;78.80;;;19.42;57.89;101699.25;5067124;28;8791;-58
2020/12/26 04:39:10;;;;;;;;;18.75;17.00;20.70;78.80;;;19.39;57.67;101702.22;5067179;28;8800;-58
2020/12/26 04:41:37;;;;;;;;;18.50;15.50;20.60;78.90;;;19.39;57.91;101707.56;5069860;28;8797;-59
2020/12/26 04:44:05;;;;;;;;;20.25;19.25;20.60;78.90;;;19.39;58.83;101718.28;5070126;28;8784;-58
2020/12/26 04:46:36;;;;;;;;;17.00;17.00;20.70;78.90;;;19.38;58.51;101725.44;5070568;28;8846;-59
2020/12/26 04:49:11;;;;;;;;;16.50;16.25;20.70;78.90;;;19.38;58.62;101743.34;5068662;28;8834;-58
2020/12/26 04:51:42;;;;;;;;;21.00;17.50;20.60;78.90;;;19.39;57.62;101747.75;5068464;28;8830;-57
2020/12/26 04:54:26;;;;;;;;;17.75;17.00;20.70;78.90;;;19.39;58.08;101751.28;5060607;28;8872;-58
2020/12/26 04:56:57;;;;;;;;;15.25;15.25;20.70;78.90;;;19.38;58.22;101756.75;5068751;28;8812;-59
2020/12/26 04:59:25;;;;;;;;;19.00;14.75;20.90;79.30;;;19.40;58.30;101758.31;5072491;28;8788;-59
2020/12/26 05:01:52;;;;;;;;;15.25;14.25;20.50;78.90;;;19.39;57.69;101778.06;5065044;28;9549;-59
2020/12/26 05:04:20;;;;;;;;;14.25;13.50;20.70;79.10;;;19.39;57.35;101779.91;5067397;28;8822;-59
2020/12/26 05:06:52;;;;;;;;;14.00;13.50;20.70;79.20;;;19.37;57.67;101777.34;5070962;28;8792;-59
2020/12/26 05:09:22;;;;;;;;;15.75;13.50;20.70;79.20;;;19.39;58.61;101775.41;5074633;28;9549;-59
2020/12/26 05:12:00;;;;;;;;;14.25;13.50;20.70;79.30;;;19.40;57.90;101784.28;5071662;28;8796;-59
2020/12/26 05:14:30;;;;;;;;;12.50;12.50;20.60;79.30;;;19.38;57.32;101778.19;5057210;28;8807;-59
2020/12/26 05:16:58;;;;;;;;;13.50;12.75;20.70;79.60;;;19.38;57.39;101780.88;5072918;28;8772;-59
2020/12/26 05:19:25;;;;;;;;;15.00;13.50;20.60;79.50;;;19.38;57.76;101803.16;5069850;28;8784;-59
2020/12/26 05:21:57;;;;;;;;;14.25;14.00;20.90;80.20;;;19.40;58.32;101803.03;5069211;28;8761;-59
2020/12/26 05:24:24;;;;;;;;;10.25;9.50;20.70;80.60;;;19.42;57.72;101793.03;5073061;28;8776;-59
2020/12/26 05:26:53;;;;;;;;;11.25;10.75;20.80;79.90;;;19.47;59.61;101806.88;5073246;28;8804;-59
2020/12/26 05:29:24;;;;;;;;;8.50;8.00;20.90;79.80;;;19.48;57.75;101811.25;5067822;28;8816;-58
2020/12/26 05:31:59;;;;;;;;;13.25;13.25;20.90;79.70;;;19.49;58.14;101821.84;5067838;28;8792;-59
2020/12/26 05:34:33;;;;;;;;;9.00;9.00;20.80;80.00;;;19.47;57.86;101807.72;5072121;28;8843;-58
2020/12/26 05:37:06;;;;;;;;;11.00;10.00;20.70;79.90;;;19.48;58.00;101808.56;5072513;28;8796;-58
2020/12/26 05:39:35;;;;;;;;;8.75;8.75;20.80;80.10;;;19.47;57.72;101813.06;5075581;28;8804;-58
2020/12/26 05:42:03;;;;;;;;;9.75;9.75;20.70;79.90;;;19.47;58.44;101807.72;5076268;28;8776;-59
2020/12/26 05:44:33;;;;;;;;;10.25;10.00;20.80;79.90;;;19.48;59.39;101816.59;5072292;28;9553;-59
2020/12/26 05:47:05;;;;;;;;;12.00;11.75;20.80;80.20;;;19.47;57.64;101821.13;5064820;28;8827;-59
2020/12/26 05:49:40;;;;;;;;;10.75;9.00;20.80;80.00;;;19.54;57.88;101824.13;5068238;28;8803;-59
2020/12/26 05:52:14;;;;;;;;;8.50;7.00;20.90;80.00;;;19.58;59.92;101836.25;5074393;28;8785;-59
2020/12/26 05:54:51;;;;;;;;;7.25;7.25;21.10;80.50;;;19.60;59.35;101833.44;5071818;28;8756;-60
2020/12/26 05:57:20;;;;;;;;;10.50;7.00;21.20;79.90;;;19.62;58.35;101836.84;5073038;28;8796;-60
2020/12/26 05:59:52;;;;;;;;;7.75;7.75;21.00;79.70;;;19.62;57.83;101843.06;5072128;28;8819;-59
2020/12/26 06:02:30;;;;;;;;;6.25;5.75;21.00;79.80;;;19.63;58.61;101843.91;5064217;28;9517;-59
2020/12/26 06:05:01;;;;;;;;;7.50;7.00;21.00;80.30;;;19.62;59.22;101851.09;5061672;28;8792;-59
2020/12/26 06:07:36;;;;;;;;;6.25;6.00;21.00;80.40;;;19.62;60.02;101852.94;5074907;28;8861;-59
2020/12/26 06:10:09;;;;;;;;;4.50;4.50;21.00;80.40;;;19.61;58.49;101862.78;5068839;28;8816;-59
2020/12/26 06:12:36;;;;;;;;;4.50;4.50;20.90;80.50;;;19.62;59.32;101853.78;5072427;28;8886;-59
2020/12/26 06:15:04;;;;;;;;;6.50;6.00;20.90;80.70;;;19.62;60.21;101864.50;5069425;28;8804;-59
2020/12/26 06:17:33;;;;;;;;;4.50;4.50;20.90;80.70;;;19.63;58.78;101876.06;5074986;28;8784;-59
2020/12/26 06:20:07;;;;;;;;;4.25;4.25;20.80;80.90;;;19.63;60.72;101882.25;5068073;28;8776;-59
2020/12/26 06:22:51;;;;;;;;;5.25;5.25;20.90;80.60;;;19.64;60.56;101883.97;5073441;28;8804;-59
2020/12/26 06:25:21;;;;;;;;;4.00;4.00;20.80;80.50;;;19.63;59.69;101887.63;5068694;28;8785;-59
2020/12/26 06:28:00;;;;;;;;;5.75;5.00;21.00;80.70;;;19.63;60.77;101887.63;5068729;28;8784;-59
2020/12/26 06:30:30;;;;;;;;;7.50;6.50;21.10;80.70;;;19.63;59.68;101881.41;5069880;28;8792;-59
2020/12/26 06:32:58;;;;;;;;;4.00;4.00;20.70;80.50;;;19.63;59.20;101879.59;5070484;28;8838;-59
2020/12/26 06:35:25;;;;;;;;;5.00;5.00;20.90;80.80;;;19.64;61.63;101894.72;5070920;28;8813;-59
2020/12/26 06:38:14;;;;;;;;;6.00;6.00;20.80;80.80;;;19.65;61.14;101892.88;5071822;28;8777;-59
2020/12/26 06:40:58;;;;;;;;;6.50;6.00;21.00;80.70;;;19.66;61.49;101897.22;5072231;28;8769;-58
2020/12/26 06:43:55;;;;;;;;;7.25;5.00;21.00;80.90;;;19.67;59.87;101902.50;5070192;28;8824;-59
2020/12/26 06:46:22;;;;;;;;;4.25;4.25;20.90;81.90;;;19.68;60.30;101895.31;5069473;28;8842;-59
2020/12/26 06:48:51;;;;;;;;;2.25;2.25;21.10;81.20;;;19.70;60.59;101893.34;5074549;28;8769;-60
2020/12/26 06:51:36;;;;;;;;;4.75;4.00;21.00;80.70;;;19.69;59.53;101892.50;5071786;28;8809;-59
2020/12/26 06:54:07;;;;;;;;;5.00;4.00;21.10;80.60;;;19.68;59.99;101900.66;5069020;28;8804;-59
2020/12/26 06:56:34;;;;;;;;;6.00;5.50;21.10;80.90;;;19.67;58.92;101904.34;5070388;28;8812;-59
2020/12/26 06:59:05;;;;;;;;;6.50;4.50;21.10;80.70;;;19.68;59.60;101904.19;5064161;28;8823;-59
2020/12/26 07:01:34;;;;;;;;;6.50;4.25;21.20;81.00;;;19.68;59.00;101906.03;5067973;28;8870;-59
2020/12/26 07:04:21;;;;;;;;;4.00;4.00;21.00;80.90;;;19.68;58.99;101909.56;5065951;28;8827;-59
2020/12/26 07:06:53;;;;;;;;;6.25;6.25;21.10;81.00;;;19.68;58.73;101916.75;5073962;28;8833;-59
2020/12/26 07:09:47;;;;;;;;;6.25;5.00;20.80;80.90;;;19.70;62.51;101936.25;5068883;28;8796;-59
2020/12/26 07:12:15;;;;;;;;;6.50;6.00;21.20;81.90;;;19.68;59.26;101922.97;5072552;28;8776;-59
2020/12/26 07:14:51;;;;;;;;;5.50;5.00;20.90;81.00;;;19.67;58.54;101925.78;5071693;28;8780;-59
2020/12/26 07:17:20;;;;;;;;;5.25;4.00;21.00;80.90;;;19.67;59.29;101940.03;5070616;28;8823;-59
2020/12/26 07:19:48;;;;;;;;;8.25;7.25;21.00;81.10;;;19.64;60.00;101936.72;5068821;28;8903;-59
2020/12/26 07:22:20;;;;;;;;;5.50;5.00;21.00;81.40;;;19.61;60.06;101924.44;5071386;28;8788;-59
2020/12/26 07:24:52;;;;;;;;;3.75;3.75;21.10;81.00;;;19.58;59.37;101913.97;5068741;28;8847;-58
2020/12/26 07:27:35;;;;;;;;;8.75;6.00;21.00;81.10;;;19.57;59.51;101916.81;5069512;28;8781;-59
2020/12/26 07:30:30;;;;;;;;;6.00;5.00;21.00;81.00;;;19.54;59.21;101915.25;5071012;28;9485;-58
2020/12/26 07:32:58;;;;;;;;;5.25;5.25;20.80;81.10;;;19.50;60.72;101922.69;5066153;28;8892;-59
2020/12/26 07:35:25;;;;;;;;;4.25;4.25;20.70;81.10;;;19.49;61.00;101907.59;5067708;28;8796;-59
2020/12/26 07:37:54;;;;;;;;;7.00;5.00;20.70;81.30;;;19.47;59.76;101903.34;5069555;28;8882;-59
2020/12/26 07:40:33;;;;;;;;;6.00;6.00;20.70;81.40;;;19.45;61.45;101922.22;5071301;28;8808;-60
2020/12/26 07:43:10;;;;;;;;;5.75;4.00;20.70;81.30;;;19.44;59.59;101917.88;5067336;28;8792;-58
2020/12/26 07:45:40;;;;;;;;;3.50;3.50;20.70;81.90;;;19.44;61.04;101925.06;5068054;28;9548;-59
2020/12/26 07:48:08;;;;;;;;;4.50;4.50;20.80;82.80;;;19.45;62.50;101926.75;5066002;28;8804;-59
2020/12/26 07:50:40;;;;;;;;;5.75;4.75;20.90;82.20;;;19.45;62.33;101927.59;5066070;28;8768;-59
2020/12/26 07:53:10;;;;;;;;;4.50;4.00;20.90;82.80;;;19.44;62.94;101923.22;5068955;28;8820;-59
2020/12/26 07:55:38;;;;;;;;;3.00;3.00;20.70;83.20;;;19.43;63.50;101924.19;5068774;28;8887;-59
2020/12/26 07:58:15;;;;;;;;;3.00;3.00;20.90;83.00;;;19.42;63.54;101927.00;5071201;28;8792;-59
2020/12/26 08:00:44;;;;;;;;;4.50;4.25;20.80;82.60;;;19.42;63.32;101916.28;5070333;28;8808;-59
2020/12/26 08:03:13;;;;;;;;;3.00;3.00;20.80;82.40;;;19.40;63.73;101923.59;5069739;28;8939;-59
2020/12/26 08:05:51;;;;;;;;;3.25;2.25;20.60;82.50;;;19.40;64.12;101924.44;5071169;28;8802;-59
2020/12/26 08:08:27;;;;;;;;;2.00;2.00;20.80;82.50;;;19.39;63.66;101927.28;5068349;28;8785;-59
2020/12/26 08:11:00;;;;;;;;;3.00;2.50;20.70;82.50;;;19.38;63.18;101922.88;5068709;28;8812;-59
2020/12/26 08:13:28;;;;;;;;;4.50;4.00;20.80;82.50;;;19.38;63.82;101930.94;5070465;28;8856;-59
2020/12/26 08:16:05;;;;;;;;;4.75;4.00;20.70;82.50;;;19.35;63.91;101912.44;5067913;28;8881;-58
2020/12/26 08:18:35;;;;;;;;;3.50;2.75;21.00;82.40;;;19.35;63.66;101902.56;5071791;28;8871;-58
2020/12/26 08:21:02;;;;;;;;;4.00;3.00;20.80;82.50;;;19.34;64.08;101903.56;5100497;28;8800;-59
2020/12/26 08:23:28;;;;;;;;;4.00;3.00;20.70;82.70;;;19.34;64.33;101913.44;5071937;28;9639;-58
2020/12/26 08:26:04;;;;;;;;;3.00;2.25;20.70;82.80;;;19.34;64.17;101908.06;5068556;28;8800;-59
2020/12/26 08:28:31;;;;;;;;;4.50;3.00;20.70;83.30;;;19.32;64.31;101904.66;5071414;28;8756;-59
2020/12/26 08:31:02;;;;;;;;;4.00;4.00;20.60;82.40;;;19.29;64.47;101895.91;5069768;28;8803;-59
2020/12/26 08:33:44;;;;;;;;;3.25;3.25;20.70;82.50;;;19.30;65.03;101902.94;5071414;28;8784;-59
2020/12/26 08:36:38;;;;;;;;;3.00;3.00;20.60;82.50;;;19.29;64.55;101895.06;5070524;28;9559;-59
2020/12/26 08:39:07;;;;;;;;;3.75;3.50;20.60;82.30;;;19.28;63.73;101890.66;5079104;28;8772;-59
2020/12/26 08:41:39;;;;;;;;;1.25;1.25;20.60;82.70;;;19.27;64.45;101902.38;5070847;28;8814;-58
2020/12/26 08:44:11;;;;;;;;;3.00;3.00;20.50;82.60;;;19.27;64.25;101897.84;5069961;28;8808;-59
2020/12/26 08:46:48;;;;;;;;;2.00;2.00;20.60;82.70;;;19.25;64.54;101881.06;5071026;28;8792;-59
2020/12/26 08:49:16;;;;;;;;;3.00;2.75;20.70;82.60;;;19.25;64.37;101890.94;5070821;28;8792;-59
2020/12/26 08:51:46;;;;;;;;;2.50;2.50;20.50;82.70;;;19.25;64.98;101891.78;5063217;28;8796;-59
2020/12/26 08:54:22;;;;;;;;;2.00;2.00;20.60;82.50;;;19.24;64.33;101886.56;5072593;28;8820;-59
2020/12/26 08:56:50;;;;;;;;;2.00;2.00;20.60;82.50;;;19.22;64.45;101894.72;5066146;28;8854;-60
2020/12/26 08:59:37;;;;;;;;;1.75;1.75;20.50;82.50;;;19.22;64.60;101893.88;5071716;28;9547;-59
2020/12/26 09:02:04;;;;;;;;;2.00;2.00;20.60;82.50;;;19.21;64.61;101893.03;5069855;28;8836;-59
2020/12/26 09:04:31;;;;;;;;;2.25;2.25;20.60;82.90;;;19.21;64.08;101893.03;5068138;28;8808;-59
2020/12/26 09:06:58;;;;;;;;;2.50;2.50;20.50;82.70;;;19.20;64.75;101902.03;5071188;28;8793;-59
2020/12/26 09:09:29;;;;;;;;;1.00;1.00;20.60;82.60;;;19.18;64.72;101895.94;5069370;28;8781;-60
2020/12/26 09:12:05;;;;;;;;;3.00;2.00;20.50;82.80;;;19.17;64.20;101904.97;5075278;28;8780;-59
2020/12/26 09:14:32;;;;;;;;;2.00;2.00;20.50;82.80;;;19.19;64.09;101908.38;5071380;28;8850;-60
2020/12/26 09:17:05;;;;;;;;;3.00;2.00;20.60;83.20;;;19.17;64.62;101896.09;5076186;28;8796;-59
2020/12/26 09:19:47;;;;;;;;;2.00;2.00;20.60;82.90;;;19.19;64.12;101911.06;5071867;28;8780;-60
2020/12/26 09:22:14;;;;;;;;;2.50;2.50;20.50;82.80;;;19.17;64.29;101896.94;5070069;28;8832;-59
2020/12/26 09:24:41;;;;;;;;;2.25;2.25;20.50;82.90;;;19.16;64.20;101892.56;5077786;28;8916;-59
2020/12/26 09:27:23;;;;;;;;;1.60;0.60;20.40;82.70;;;19.15;64.70;101904.25;5068887;28;8815;-59
2020/12/26 09:30:04;;;;;;;;;2.00;2.00;20.50;82.70;;;19.16;63.75;101903.28;5072234;28;9529;-59
2020/12/26 09:32:30;;;;;;;;;2.00;2.00;20.50;82.60;;;19.15;64.18;101901.56;5077937;28;8785;-59
2020/12/26 09:34:57;;;;;;;;;3.25;2.00;20.40;82.70;;;19.15;64.40;101914.97;5068895;28;8765;-58
2020/12/26 09:37:24;;;;;;;;;3.00;3.00;20.40;82.90;;;19.15;63.97;101909.59;5067705;28;8816;-60
2020/12/26 09:39:51;;;;;;;;;2.25;2.25;20.50;82.90;;;19.15;64.21;101903.41;5078483;28;8826;-59
2020/12/26 09:42:25;;;;;;;;;2.00;2.00;20.50;82.80;;;19.14;64.40;101921.31;5074461;28;8834;-59
2020/12/26 09:44:51;;;;;;;;;2.50;2.00;20.50;82.90;;;19.14;64.23;101920.47;5069203;28;8784;-59
2020/12/26 09:47:18;;;;;;;;;1.75;1.00;20.40;82.80;;;19.12;64.10;101920.59;5070976;28;8793;-59
2020/12/26 09:49:45;;;;;;;;;2.25;1.50;20.50;82.90;;;19.13;64.02;101926.78;5072812;28;8793;-59
2020/12/26 09:52:12;;;;;;;;;2.00;2.00;20.50;83.00;;;19.11;63.93;101929.63;5070965;28;8796;-59
2020/12/26 09:54:38;;;;;;;;;1.00;1.00;20.50;82.90;;;19.12;64.45;101933.97;5071173;28;8819;-59
2020/12/26 09:57:05;;;;;;;;;2.00;1.75;20.50;82.90;;;19.09;64.19;101935.09;5067869;28;8857;-59
2020/12/26 09:59:32;;;;;;;;;1.25;1.00;20.60;83.00;;;19.11;64.61;101937.66;5071319;28;8785;-59
2020/12/26 10:01:59;;;;;;;;;1.75;1.75;20.50;82.90;;;19.10;64.56;101927.91;5070546;28;8797;-59
2020/12/26 10:04:26;;;;;;;;;2.00;2.00;20.60;82.80;;;19.11;64.28;101944.81;5071613;28;8796;-59
2020/12/26 10:06:53;;;;;;;;;1.00;1.00;20.30;82.90;;;19.10;64.46;101946.66;5071440;28;8840;-59
2020/12/26 10:09:20;;;;;;;;;1.50;1.00;20.60;83.00;;;19.09;64.38;101947.63;5069109;28;8852;-59
2020/12/26 10:11:46;;;;;;;;;1.00;0.00;20.40;83.00;;;19.09;64.52;101958.34;5071906;28;8818;-59
2020/12/26 10:14:13;;;;;;;;;2.00;1.75;20.20;83.00;;;19.07;64.83;101952.25;5082257;28;8916;-59
2020/12/26 10:16:40;;;;;;;;;1.00;1.00;20.60;83.20;;;19.06;64.70;101955.94;5076566;28;8834;-59
2020/12/26 10:19:07;;;;;;;;;1.75;1.75;20.40;83.10;;;19.07;64.60;101954.94;5086796;28;8794;-59
2020/12/26 10:21:34;;;;;;;;;2.50;1.75;20.40;82.90;;;19.05;64.73;101959.56;5076083;28;8780;-59
2020/12/26 10:24:00;;;;;;;;;1.00;1.00;20.20;83.00;;;19.07;64.21;101960.31;5074785;28;8824;-60
2020/12/26 10:26:27;;;;;;;;;1.00;1.00;20.40;83.20;;;19.05;64.73;101962.25;5071626;28;8919;-59